createdAt,value
2023-10-10T00:00:29.288Z,100944.69
2023-10-10T00:05:41.731Z,100942.56
2023-10-10T00:10:52.339Z,100950.53
2023-10-10T00:15:58.556Z,100944.50
2023-10-10T00:21:09.912Z,100939.03
2023-10-10T00:26:16.700Z,100943.59
2023-10-10T00:31:20.100Z,100943.97
2023-10-10T00:36:32.611Z,100944.25
2023-10-10T00:41:53.447Z,100944.34
2023-10-10T00:46:59.085Z,100946.22
2023-10-10T00:52:08.069Z,100938.06
2023-10-10T00:57:15.236Z,100932.25
2023-10-10T01:02:22.173Z,100930.00
2023-10-10T01:07:28.152Z,100935.41
2023-10-10T01:12:36.813Z,100928.88
2023-10-10T01:17:40.676Z,100935.00
2023-10-10T01:22:49.153Z,100925.34
2023-10-10T01:27:55.808Z,100931.78
2023-10-10T01:33:02.184Z,100937.25
2023-10-10T01:38:15.220Z,100925.06
2023-10-10T01:43:18.500Z,100921.09
2023-10-10T01:48:26.574Z,100923.44
2023-10-10T01:53:32.271Z,100918.91
2023-10-10T01:58:37.937Z,100923.69
2023-10-10T02:03:42.977Z,100918.66
2023-10-10T02:09:15.257Z,100913.50
2023-10-10T02:14:16.484Z,100911.97
2023-10-10T02:19:26.933Z,100906.03
2023-10-10T02:24:50.152Z,100905.97
2023-10-10T02:29:54.771Z,100904.06
2023-10-10T02:35:16.768Z,100901.16
2023-10-10T02:40:32.215Z,100890.41
2023-10-10T02:45:37.105Z,100883.72
2023-10-10T02:50:43.021Z,100885.81
2023-10-10T02:55:53.267Z,100874.56
2023-10-10T03:00:58.956Z,100875.69
2023-10-10T03:06:07.760Z,100872.53
2023-10-10T03:11:36.755Z,100869.75
2023-10-10T03:17:00.913Z,100878.19
2023-10-10T03:22:19.544Z,100874.97
2023-10-10T03:27:40.215Z,100874.91
2023-10-10T03:33:01.050Z,100883.81
2023-10-10T03:38:29.545Z,100878.63
2023-10-10T03:44:00.259Z,100881.94
2023-10-10T03:49:21.104Z,100872.94
2023-10-10T03:54:38.096Z,100881.41
2023-10-10T04:00:00.329Z,100884.31
2023-10-10T04:05:27.047Z,100885.28
2023-10-10T04:10:49.003Z,100885.34
2023-10-10T04:16:11.096Z,100891.81
2023-10-10T04:21:32.238Z,100893.31
2023-10-10T04:26:52.691Z,100884.84
2023-10-10T04:32:14.900Z,100885.38
2023-10-10T04:37:37.429Z,100880.25
2023-10-10T04:43:04.102Z,100891.94
2023-10-10T04:48:26.382Z,100897.84
2023-10-10T04:53:52.352Z,100895.81
2023-10-10T04:59:14.048Z,100893.34
2023-10-10T05:04:36.143Z,100896.91
2023-10-10T05:09:56.617Z,100898.72
2023-10-10T05:15:17.034Z,100905.34
2023-10-10T05:20:41.784Z,100907.09
2023-10-10T05:25:46.590Z,100905.69
2023-10-10T05:30:49.791Z,100905.91
2023-10-10T05:35:59.817Z,100909.75
2023-10-10T05:41:04.398Z,100917.38
2023-10-10T05:46:07.757Z,100909.44
2023-10-10T05:51:14.543Z,100904.50
2023-10-10T05:56:18.899Z,100904.53
2023-10-10T06:01:25.068Z,100905.38
2023-10-10T06:06:30.328Z,100905.03
2023-10-10T06:11:36.126Z,100901.84
2023-10-10T06:16:39.806Z,100912.94
2023-10-10T06:21:45.522Z,100909.84
2023-10-10T06:26:50.786Z,100914.75
2023-10-10T06:31:53.971Z,100905.88
2023-10-10T06:37:00.447Z,100913.41
2023-10-10T06:42:05.314Z,100908.38
2023-10-10T06:47:12.989Z,100919.13
2023-10-10T06:52:20.464Z,100912.94
2023-10-10T06:57:37.606Z,100920.25
2023-10-10T07:02:42.892Z,100920.78
2023-10-10T07:07:56.206Z,100920.69
2023-10-10T07:13:02.444Z,100937.91
2023-10-10T07:18:15.598Z,100943.34
2023-10-10T07:23:22.104Z,100937.25
2023-10-10T07:28:27.410Z,100944.66
2023-10-10T07:33:41.894Z,100949.34
2023-10-10T07:38:46.368Z,100949.81
2023-10-10T07:43:54.050Z,100954.00
2023-10-10T07:49:01.427Z,100951.75
2023-10-10T07:54:14.034Z,100960.44
2023-10-10T07:59:18.876Z,100961.88
2023-10-10T08:04:23.751Z,100959.78
2023-10-10T08:09:31.218Z,100973.47
2023-10-10T08:14:38.924Z,100962.00
2023-10-10T08:19:44.759Z,100972.19
2023-10-10T08:24:49.353Z,100966.97
2023-10-10T08:29:54.880Z,100964.38
2023-10-10T08:35:06.054Z,100965.00
2023-10-10T08:40:21.205Z,100967.47
2023-10-10T08:45:27.797Z,100958.22
2023-10-10T08:50:33.982Z,100959.94
2023-10-10T08:55:42.414Z,100956.94
2023-10-10T09:00:49.369Z,100965.94
2023-10-10T09:05:53.250Z,100964.13
2023-10-10T09:11:02.418Z,100963.97
2023-10-10T09:16:16.594Z,100961.84
2023-10-10T09:21:25.724Z,100963.69
2023-10-10T09:26:38.244Z,100952.91
2023-10-10T09:31:46.993Z,100960.88
2023-10-10T09:37:03.672Z,100967.78
2023-10-10T09:42:30.166Z,100956.19
2023-10-10T09:47:45.388Z,100952.34
2023-10-10T09:52:51.711Z,100951.69
2023-10-10T09:58:09.750Z,100934.66
2023-10-10T10:03:33.454Z,100918.66
2023-10-10T10:08:46.267Z,100925.91
2023-10-10T10:14:12.525Z,100914.94
2023-10-10T10:19:29.388Z,100917.63
2023-10-10T10:24:54.044Z,100910.53
2023-10-10T10:30:09.972Z,100899.56
2023-10-10T10:35:16.964Z,100899.44
2023-10-10T10:40:26.441Z,100906.22
2023-10-10T10:45:36.619Z,100895.31
2023-10-10T10:50:47.039Z,100889.47
2023-10-10T10:56:07.993Z,100886.13
2023-10-10T11:01:18.106Z,100890.44
2023-10-10T11:06:21.747Z,100883.19
2023-10-10T11:11:28.176Z,100872.47
2023-10-10T11:16:57.796Z,100879.56
2023-10-10T11:22:06.801Z,100880.63
2023-10-10T11:27:16.738Z,100866.88
2023-10-10T11:32:30.921Z,100867.69
2023-10-10T11:37:36.140Z,100866.22
2023-10-10T11:42:39.448Z,100853.88
2023-10-10T11:47:57.733Z,100855.53
2023-10-10T11:53:02.526Z,100831.31
2023-10-10T11:58:09.454Z,100830.97
2023-10-10T12:03:21.846Z,100821.44
2023-10-10T12:08:26.261Z,100821.66
2023-10-10T12:13:39.177Z,100809.88
2023-10-10T12:18:52.813Z,100794.81
2023-10-10T12:24:10.750Z,100786.88
2023-10-10T12:29:44.115Z,100775.19
2023-10-10T12:35:01.155Z,100771.72
2023-10-10T12:40:34.119Z,100763.25
2023-10-10T12:45:55.840Z,100744.03
2023-10-10T12:51:29.490Z,100745.50
2023-10-10T12:59:25.879Z,100729.16
2023-10-10T13:14:21.207Z,100708.78
2023-10-10T13:19:54.937Z,100703.09
2023-10-10T13:25:34.314Z,100686.38
2023-10-10T13:36:47.303Z,100673.59
2023-10-10T13:47:33.407Z,100663.84
2023-10-10T13:52:40.762Z,100654.41
2023-10-10T13:58:01.818Z,100654.81
2023-10-10T14:03:47.073Z,100645.75
2023-10-10T14:09:47.945Z,100647.00
2023-10-10T14:15:40.321Z,100644.41
2023-10-10T14:21:15.468Z,100641.41
2023-10-10T14:26:56.865Z,100632.78
2023-10-10T14:32:35.124Z,100639.19
2023-10-10T14:38:36.228Z,100634.16
2023-10-10T14:43:57.404Z,100630.84
2023-10-10T14:49:31.020Z,100623.00
2023-10-10T14:55:00.396Z,100625.28
2023-10-10T15:00:24.006Z,100614.28
2023-10-10T15:05:40.615Z,100609.63
2023-10-10T15:10:50.420Z,100602.13
2023-10-10T15:16:14.137Z,100605.47
2023-10-10T15:21:35.876Z,100604.38
2023-10-10T15:26:49.846Z,100595.91
2023-10-10T15:32:07.108Z,100588.88
2023-10-10T15:37:24.785Z,100588.44
2023-10-10T15:42:40.322Z,100589.25
2023-10-10T15:47:56.601Z,100579.97
2023-10-10T15:53:07.220Z,100580.28
2023-10-10T15:58:30.792Z,100575.22
2023-10-10T16:03:43.974Z,100577.72
2023-10-10T16:09:10.102Z,100587.22
2023-10-10T16:14:22.087Z,100580.59
2023-10-10T16:19:40.203Z,100588.78
2023-10-10T16:24:53.931Z,100586.28
2023-10-10T16:30:07.119Z,100593.19
2023-10-10T16:35:16.691Z,100593.75
2023-10-10T16:40:24.721Z,100604.75
2023-10-10T16:45:37.359Z,100598.28
2023-10-10T16:50:44.479Z,100599.84
2023-10-10T16:55:49.873Z,100610.41
2023-10-10T17:00:54.755Z,100615.03
2023-10-10T17:06:01.967Z,100626.00
2023-10-10T17:11:12.341Z,100640.03
2023-10-10T17:16:26.934Z,100648.06
2023-10-10T17:21:38.167Z,100653.19
2023-10-10T17:26:45.335Z,100656.06
2023-10-10T17:31:57.190Z,100668.13
2023-10-10T17:37:03.189Z,100664.97
2023-10-10T17:42:12.473Z,100654.44
2023-10-10T17:47:22.108Z,100668.56
2023-10-10T17:52:34.499Z,100673.09
2023-10-10T17:57:41.943Z,100676.78
2023-10-10T18:02:57.478Z,100678.31
2023-10-10T18:08:02.330Z,100689.38
2023-10-10T18:13:06.714Z,100690.38
2023-10-10T18:18:14.305Z,100704.44
2023-10-10T18:23:22.563Z,100708.03
2023-10-10T18:28:31.250Z,100705.88
2023-10-10T18:33:41.537Z,100706.94
2023-10-10T18:38:46.856Z,100720.88
2023-10-10T18:43:51.637Z,100729.16
2023-10-10T18:48:58.672Z,100729.25
2023-10-10T18:54:09.615Z,100738.13
2023-10-10T18:59:15.080Z,100739.50
2023-10-10T19:04:23.051Z,100733.41
2023-10-10T19:09:30.900Z,100747.19
2023-10-10T19:14:47.450Z,100753.34
2023-10-10T19:19:54.558Z,100754.78
2023-10-10T19:24:59.175Z,100751.69
2023-10-10T19:30:05.601Z,100755.56
2023-10-10T19:35:15.415Z,100759.97
2023-10-10T19:40:21.953Z,100766.88
2023-10-10T19:45:27.758Z,100775.94
2023-10-10T19:50:32.918Z,100786.66
2023-10-10T19:55:38.711Z,100785.13
2023-10-10T20:00:47.063Z,100787.41
2023-10-10T20:05:54.346Z,100784.56
2023-10-10T20:10:58.469Z,100780.19
2023-10-10T20:16:04.403Z,100789.53
2023-10-10T20:21:09.042Z,100788.00
2023-10-10T20:26:18.440Z,100782.59
2023-10-10T20:31:23.476Z,100783.72
2023-10-10T20:36:28.197Z,100777.06
2023-10-10T20:41:33.966Z,100782.16
2023-10-10T20:46:37.894Z,100785.88
2023-10-10T20:51:44.550Z,100778.28
2023-10-10T20:56:50.086Z,100778.91
2023-10-10T21:01:53.658Z,100779.34
2023-10-10T21:07:00.703Z,100781.03
2023-10-10T21:12:08.535Z,100773.59
2023-10-10T21:17:13.611Z,100775.41
2023-10-10T21:22:21.670Z,100773.53
2023-10-10T21:27:25.114Z,100781.41
2023-10-10T21:32:28.373Z,100782.03
2023-10-10T21:37:32.956Z,100782.75
2023-10-10T21:42:36.140Z,100788.06
2023-10-10T21:47:40.890Z,100789.34
2023-10-10T21:52:47.165Z,100798.84
2023-10-10T21:57:53.107Z,100782.59
2023-10-10T22:02:56.389Z,100791.66
2023-10-10T22:08:01.869Z,100784.56
2023-10-10T22:13:05.649Z,100793.28
2023-10-10T22:18:09.100Z,100786.56
2023-10-10T22:23:20.351Z,100786.41
2023-10-10T22:28:23.520Z,100784.19
2023-10-10T22:33:26.782Z,100783.97
2023-10-10T22:38:32.679Z,100780.34
2023-10-10T22:43:37.933Z,100773.66
2023-10-10T22:48:41.316Z,100770.91
2023-10-10T22:53:47.867Z,100771.16
2023-10-10T22:58:51.249Z,100776.44
2023-10-10T23:03:54.605Z,100779.47
2023-10-10T23:09:00.051Z,100786.28
2023-10-10T23:14:06.345Z,100778.03
2023-10-10T23:19:10.373Z,100768.25
2023-10-10T23:24:18.200Z,100772.38
2023-10-10T23:29:21.718Z,100770.09
2023-10-10T23:34:25.548Z,100782.94
2023-10-10T23:39:34.980Z,100772.38
2023-10-10T23:44:43.610Z,100774.84
2023-10-10T23:49:52.097Z,100779.00
2023-10-10T23:54:57.241Z,100783.28
